Time;durP1;ratioP1;P1;durP2;ratioP2;P2;SDS_P1;SDS_P2;PMS_P1;PMS_P2;Temp;Humidity;BMP_temperature;BMP_pressure;BME280_temperature;BME280_humidity;BME280_pressure;Samples;Min_cycle;Max_cycle;Signal;HPM_P1;HPM_P2
2021/03/24 00:01:46;;;;;;;0.00;0.00;;;;;;;-1.01;100.00;100275.06;1811782;77;21186;-42
2021/03/24 00:04:47;;;;;;;0.15;0.15;;;;;;;-1.00;100.00;100267.31;1810164;79;21470;-42
2021/03/24 00:07:48;;;;;;;0.45;0.45;;;;;;;-1.01;100.00;100267.02;1771969;79;21143;-42
2021/03/24 00:10:50;;;;;;;2.30;1.00;;;;;;;-1.02;100.00;100272.06;1779664;79;21141;-42
2021/03/24 00:13:51;;;;;;;0.90;0.25;;;;;;;-1.01;100.00;100268.36;1802317;78;21111;-44
2021/03/24 00:16:55;;;;;;;0.25;0.25;;;;;;;-1.01;100.00;100272.39;1843442;77;21143;-43
2021/03/24 00:19:56;;;;;;;0.00;0.00;;;;;;;-0.98;99.61;100278.67;1823465;77;21123;-43
2021/03/24 00:22:57;;;;;;;0.23;0.13;;;;;;;-0.98;99.64;100267.94;1824872;77;21183;-43
2021/03/24 00:25:59;;;;;;;0.33;0.33;;;;;;;-1.00;99.51;100282.07;1840287;77;21562;-43
2021/03/24 00:28:59;;;;;;;0.05;0.05;;;;;;;-0.99;99.01;100283.73;1769773;79;21941;-43
2021/03/24 00:32:00;;;;;;;0.40;0.40;;;;;;;-0.95;98.78;100283.61;1796502;78;21106;-43
2021/03/24 00:35:01;;;;;;;0.42;0.42;;;;;;;-0.97;98.69;100284.33;1793731;79;21112;-43
2021/03/24 00:38:02;;;;;;;0.20;0.20;;;;;;;-0.99;99.09;100289.10;1810186;79;21419;-44
2021/03/24 00:41:06;;;;;;;0.90;0.90;;;;;;;-1.02;99.83;100284.13;1810469;77;21598;-43
2021/03/24 00:44:07;;;;;;;0.23;0.23;;;;;;;-1.07;100.00;100285.27;1810021;79;20961;-43
2021/03/24 00:47:08;;;;;;;0.25;0.25;;;;;;;-1.10;100.00;100284.34;1819781;77;21168;-43
2021/03/24 00:50:09;;;;;;;0.10;0.10;;;;;;;-1.12;100.00;100281.05;1809959;79;21116;-43
2021/03/24 00:53:10;;;;;;;0.08;0.08;;;;;;;-1.14;100.00;100287.13;1810202;79;20937;-43
2021/03/24 00:56:11;;;;;;;2.17;0.30;;;;;;;-1.19;100.00;100281.55;1810442;77;21158;-43
2021/03/24 00:59:12;;;;;;;0.10;0.10;;;;;;;-1.22;100.00;100286.00;1798706;79;21671;-44
2021/03/24 01:02:12;;;;;;;0.15;0.15;;;;;;;-1.25;100.00;100293.12;1797370;79;21218;-43
2021/03/24 01:05:13;;;;;;;0.70;0.68;;;;;;;-1.27;100.00;100297.86;1797922;79;21094;-43
2021/03/24 01:08:18;;;;;;;0.10;0.10;;;;;;;-1.30;100.00;100299.91;1771637;79;21170;-43
2021/03/24 01:11:20;;;;;;;1.45;0.80;;;;;;;-1.33;100.00;100292.28;1773183;79;21454;-44
2021/03/24 01:14:21;;;;;;;0.13;0.13;;;;;;;-1.33;100.00;100299.52;1797798;79;21173;-44
2021/03/24 01:17:23;;;;;;;0.93;0.30;;;;;;;-1.34;100.00;100305.36;1803474;79;21111;-43
2021/03/24 01:20:24;;;;;;;0.50;0.50;;;;;;;-1.34;100.00;100305.88;1791616;79;21111;-43
2021/03/24 01:23:25;;;;;;;2.85;0.65;;;;;;;-1.35;100.00;100312.29;1810851;77;21159;-43
2021/03/24 01:26:25;;;;;;;0.30;0.30;;;;;;;-1.36;100.00;100308.79;1821171;77;21147;-44
2021/03/24 01:29:25;;;;;;;0.10;0.10;;;;;;;-1.38;100.00;100313.52;1827953;77;21494;-44
2021/03/24 01:32:26;;;;;;;0.65;0.65;;;;;;;-1.38;100.00;100316.73;1793396;79;21155;-44
2021/03/24 01:35:27;;;;;;;0.00;0.00;;;;;;;-1.39;100.00;100322.58;1791089;79;21143;-43
2021/03/24 01:38:28;;;;;;;0.57;0.57;;;;;;;-1.41;100.00;100320.64;1810556;79;21146;-43
2021/03/24 01:41:30;;;;;;;0.10;0.10;;;;;;;-1.42;100.00;100327.02;1817984;77;21135;-43
2021/03/24 01:44:32;;;;;;;1.77;0.93;;;;;;;-1.42;100.00;100329.69;1771927;80;29707;-43
2021/03/24 01:47:35;;;;;;;0.33;0.33;;;;;;;-1.42;100.00;100326.19;1810095;77;21190;-44
2021/03/24 01:50:40;;;;;;;3.00;0.30;;;;;;;-1.40;100.00;100331.66;1814147;77;21115;-43
2021/03/24 01:53:45;;;;;;;0.30;0.30;;;;;;;-1.42;100.00;100325.67;1827928;77;21119;-43
2021/03/24 01:56:46;;;;;;;0.10;0.10;;;;;;;-1.44;100.00;100330.92;1773453;80;21177;-43
2021/03/24 01:59:48;;;;;;;0.10;0.10;;;;;;;-1.43;100.00;100336.09;1820992;77;21151;-43
2021/03/24 02:02:51;;;;;;;0.42;0.42;;;;;;;-1.45;100.00;100340.83;1773954;80;21118;-44
2021/03/24 02:05:54;;;;;;;0.28;0.28;;;;;;;-1.45;100.00;100342.17;1793167;80;27485;-43
2021/03/24 02:09:24;;;;;;;0.20;0.20;;;;;;;-1.45;100.00;100336.81;1772859;80;21127;-44
2021/03/24 02:12:48;;;;;;;0.20;0.20;;;;;;;-1.47;100.00;100353.60;1812297;77;21170;-43
2021/03/24 02:15:58;;;;;;;0.10;0.10;;;;;;;-1.48;100.00;100356.47;1795021;79;21142;-44
2021/03/24 02:19:00;;;;;;;1.37;0.40;;;;;;;-1.51;100.00;100351.00;1808451;79;21143;-43
2021/03/24 02:22:04;;;;;;;0.65;0.65;;;;;;;-1.52;100.00;100360.09;1792903;80;21119;-44
2021/03/24 02:25:19;;;;;;;0.72;0.72;;;;;;;-1.50;100.00;100361.23;1801838;77;21255;-43
2021/03/24 02:28:20;;;;;;;0.23;0.23;;;;;;;-1.50;100.00;100367.41;1815091;77;21046;-43
2021/03/24 02:31:21;;;;;;;0.47;0.47;;;;;;;-1.46;100.00;100351.22;1766619;80;21577;-43
2021/03/24 02:34:27;;;;;;;0.00;0.00;;;;;;;-1.48;100.00;100366.70;1810201;77;21147;-44
2021/03/24 02:37:27;;;;;;;0.10;0.10;;;;;;;-1.47;100.00;100373.70;1810035;79;21143;-43
2021/03/24 02:40:28;;;;;;;0.10;0.10;;;;;;;-1.48;100.00;100366.70;1762040;78;21091;-43
2021/03/24 02:43:29;;;;;;;0.30;0.30;;;;;;;-1.47;100.00;100367.00;1810717;77;21139;-43
2021/03/24 02:46:31;;;;;;;0.37;0.37;;;;;;;-1.46;100.00;100374.00;1761339;80;21205;-43
2021/03/24 02:49:32;;;;;;;0.37;0.37;;;;;;;-1.45;100.00;100381.03;1823113;77;21155;-45
2021/03/24 02:52:34;;;;;;;0.00;0.00;;;;;;;-1.44;100.00;100375.97;1807970;77;21115;-44
2021/03/24 02:55:35;;;;;;;1.00;1.00;;;;;;;-1.44;100.00;100373.81;1808375;77;21171;-43
2021/03/24 02:58:35;;;;;;;1.12;0.42;;;;;;;-1.41;100.00;100386.31;1807974;79;21214;-43
2021/03/24 03:01:44;;;;;;;0.05;0.05;;;;;;;-1.41;99.96;100393.50;1816755;77;21127;-44
2021/03/24 03:04:57;;;;;;;1.27;0.40;;;;;;;-1.40;99.87;100388.47;1807379;79;21142;-43
2021/03/24 03:08:15;;;;;;;0.42;0.20;;;;;;;-1.42;99.79;100384.64;1807923;77;21133;-43
2021/03/24 03:11:29;;;;;;;0.00;0.00;;;;;;;-1.44;99.66;100393.39;1812222;77;21107;-43
2021/03/24 03:14:39;;;;;;;0.30;0.30;;;;;;;-1.45;99.57;100382.38;1821625;77;21155;-43
2021/03/24 03:17:44;;;;;;;0.10;0.10;;;;;;;-1.48;99.55;100401.55;1828796;77;21127;-43
2021/03/24 03:20:53;;;;;;;2.27;0.80;;;;;;;-1.47;99.46;100401.84;1807970;77;21159;-42
2021/03/24 03:23:54;;;;;;;0.23;0.23;;;;;;;-1.47;99.47;100397.83;1832597;77;21123;-43
2021/03/24 03:26:55;;;;;;;0.37;0.37;;;;;;;-1.45;99.47;100406.50;1773911;79;21166;-43
2021/03/24 03:29:56;;;;;;;0.08;0.08;;;;;;;-1.47;99.58;100403.19;1790781;79;21636;-43
2021/03/24 03:32:56;;;;;;;0.00;0.00;;;;;;;-1.47;99.49;100407.73;1808117;79;22039;-42
2021/03/24 03:35:59;;;;;;;0.55;0.55;;;;;;;-1.47;99.36;100413.91;1798074;77;21107;-43
2021/03/24 03:39:00;;;;;;;0.20;0.20;;;;;;;-1.48;99.22;100422.98;1823201;77;21084;-43
2021/03/24 03:42:04;;;;;;;0.25;0.25;;;;;;;-1.46;99.12;100420.91;1817414;77;21138;-44
2021/03/24 03:45:04;;;;;;;0.37;0.37;;;;;;;-1.47;99.02;100425.97;1839519;77;21222;-43
2021/03/24 03:48:05;;;;;;;0.90;0.62;;;;;;;-1.47;98.84;100434.01;1777822;79;21148;-43
2021/03/24 03:51:13;;;;;;;0.75;0.40;;;;;;;-1.45;98.69;100426.59;1750561;80;21146;-43
2021/03/24 03:54:41;;;;;;;0.10;0.10;;;;;;;-1.48;98.68;100433.70;1754295;81;21114;-43
2021/03/24 03:57:58;;;;;;;0.03;0.03;;;;;;;-1.49;98.55;100442.76;1798262;79;21132;-42
2021/03/24 04:01:20;;;;;;;3.52;0.47;;;;;;;-1.49;98.53;100440.08;1777473;79;21609;-43
2021/03/24 04:04:26;;;;;;;0.10;0.10;;;;;;;-1.46;98.02;100445.03;1768452;81;21146;-44
2021/03/24 04:07:32;;;;;;;0.15;0.15;;;;;;;-1.44;97.66;100444.32;1795171;79;21126;-43
2021/03/24 04:10:34;;;;;;;0.28;0.28;;;;;;;-1.44;97.42;100446.19;1767537;79;21126;-43
2021/03/24 04:13:37;;;;;;;0.30;0.30;;;;;;;-1.43;97.28;100452.69;1769020;81;21114;-43
2021/03/24 04:16:37;;;;;;;2.95;1.35;;;;;;;-1.38;96.81;100460.95;1770520;79;21212;-44
2021/03/24 04:19:41;;;;;;;0.20;0.20;;;;;;;-1.36;96.59;100466.09;1784199;79;21170;-44
2021/03/24 04:22:42;;;;;;;0.10;0.10;;;;;;;-1.36;96.33;100464.27;1767914;79;21482;-43
2021/03/24 04:25:56;;;;;;;0.82;0.68;;;;;;;-1.36;96.35;100467.44;1818323;77;21095;-43
2021/03/24 04:29:01;;;;;;;0.28;0.25;;;;;;;-1.37;96.37;100474.66;1829620;77;21146;-44
2021/03/24 04:32:07;;;;;;;0.20;0.20;;;;;;;-1.37;96.33;100465.80;1809413;77;21111;-43
2021/03/24 04:35:09;;;;;;;0.10;0.10;;;;;;;-1.35;95.88;100469.11;1754232;81;21189;-44
2021/03/24 04:38:10;;;;;;;0.17;0.17;;;;;;;-1.33;95.66;100475.11;1768941;81;21571;-43
2021/03/24 04:41:19;;;;;;;0.98;0.45;;;;;;;-1.29;95.28;100484.38;1762357;79;21150;-43
2021/03/24 04:44:32;;;;;;;0.37;0.37;;;;;;;-1.25;95.00;100485.64;1739496;81;21545;-43
2021/03/24 04:47:40;;;;;;;0.55;0.33;;;;;;;-1.23;94.62;100493.50;1788423;78;22091;-43
2021/03/24 04:50:49;;;;;;;0.23;0.20;;;;;;;-1.16;94.22;100481.77;1814588;77;21206;-42
2021/03/24 04:53:56;;;;;;;1.27;0.30;;;;;;;-1.16;94.36;100488.98;1810332;79;21108;-44
2021/03/24 04:57:00;;;;;;;0.88;0.55;;;;;;;-1.16;94.41;100503.22;1832962;77;21514;-42
2021/03/24 05:00:06;;;;;;;0.10;0.10;;;;;;;-1.17;94.75;100501.55;1832808;77;21353;-43
2021/03/24 05:03:17;;;;;;;0.23;0.23;;;;;;;-1.19;95.36;100505.45;1801044;79;21131;-43
2021/03/24 05:06:43;;;;;;;0.20;0.20;;;;;;;-1.25;96.49;100501.73;1793205;79;21157;-43
2021/03/24 05:09:43;;;;;;;0.10;0.10;;;;;;;-1.28;97.43;100504.82;1843285;77;21381;-44
2021/03/24 05:12:54;;;;;;;1.65;0.35;;;;;;;-1.23;97.63;100506.91;1811234;77;21092;-43
2021/03/24 05:16:06;;;;;;;;;;;;;;;-1.24;97.60;100508.73;1774218;79;21107;-43
2021/03/24 05:19:07;;;;;;;0.10;0.10;;;;;;;-1.23;98.06;100510.93;1803329;79;20254;-43
2021/03/24 05:22:31;;;;;;;0.00;0.00;;;;;;;-1.23;98.36;100523.81;1781639;79;21157;-43
2021/03/24 05:25:38;;;;;;;0.30;0.30;;;;;;;-1.21;98.22;100516.41;1752401;79;21129;-43
2021/03/24 05:28:48;;;;;;;0.10;0.10;;;;;;;-1.20;98.43;100526.61;1795027;79;21580;-43
2021/03/24 05:31:52;;;;;;;1.12;0.53;;;;;;;-1.20;98.58;100521.25;1815581;77;21134;-43
2021/03/24 05:34:55;;;;;;;0.10;0.10;;;;;;;-1.18;98.69;100520.02;1819339;77;21119;-43
2021/03/24 05:37:56;;;;;;;0.20;0.20;;;;;;;-1.12;98.44;100529.11;1742633;79;21152;-43
2021/03/24 05:41:21;;;;;;;0.62;0.62;;;;;;;-1.11;98.90;100534.28;1843465;77;21305;-44
2021/03/24 05:44:45;;;;;;;0.47;0.47;;;;;;;-1.07;98.74;100531.19;1768161;79;21127;-43
2021/03/24 05:48:14;;;;;;;0.13;0.13;;;;;;;-1.04;97.93;100552.23;1809316;77;21238;-43
2021/03/24 05:51:53;;;;;;;1.45;0.72;;;;;;;-1.01;98.79;100536.59;1786584;77;21206;-44
2021/03/24 05:55:32;;;;;;;0.10;0.10;;;;;;;-0.97;98.25;100540.50;1809763;79;21546;-43
2021/03/24 05:59:05;;;;;;;0.00;0.00;;;;;;;-0.90;98.57;100542.69;1829685;77;21103;-44
2021/03/24 06:02:11;;;;;;;0.00;0.00;;;;;;;-0.87;98.63;100540.12;1822025;77;21104;-43
2021/03/24 06:05:26;;;;;;;0.17;0.17;;;;;;;-0.84;99.37;100545.59;1814948;78;21083;-44
2021/03/24 06:09:00;;;;;;;1.77;0.57;;;;;;;-0.76;99.62;100550.28;1810002;77;21502;-44
2021/03/24 06:12:28;;;;;;;0.20;0.20;;;;;;;-0.69;99.29;100555.67;1797351;77;21149;-46
2021/03/24 06:15:55;;;;;;;0.30;0.30;;;;;;;-0.58;98.05;100552.37;1814478;77;21131;-44
2021/03/24 06:19:34;;;;;;;0.10;0.10;;;;;;;-0.58;97.80;100558.27;1817693;77;21478;-44
2021/03/24 06:23:20;;;;;;;1.22;1.05;;;;;;;-0.55;97.42;100562.70;1837375;77;21143;-46
2021/03/24 06:26:34;;;;;;;0.35;0.35;;;;;;;-0.45;97.21;100564.47;1755162;79;21550;-47
2021/03/24 06:30:33;;;;;;;0.75;0.53;;;;;;;-0.34;95.44;100577.00;1782774;79;21197;-47
2021/03/24 06:33:57;;;;;;;1.27;0.40;;;;;;;-0.31;95.04;100579.27;1769013;80;21123;-48
2021/03/24 06:37:19;;;;;;;1.07;0.82;;;;;;;-0.36;94.58;100583.09;1791049;79;21178;-47
2021/03/24 06:40:54;;;;;;;0.30;0.30;;;;;;;-0.42;94.17;100590.60;1754039;80;21118;-47
2021/03/24 06:44:12;;;;;;;0.10;0.10;;;;;;;-0.41;93.58;100586.91;1797984;79;21639;-46
2021/03/24 06:47:41;;;;;;;0.08;0.08;;;;;;;-0.35;92.84;100595.47;1798149;79;21174;-49
2021/03/24 06:51:04;;;;;;;0.10;0.10;;;;;;;-0.33;92.65;100606.32;1794872;79;21162;-47
2021/03/24 06:54:38;;;;;;;0.10;0.10;;;;;;;-0.25;91.42;100599.44;1764919;79;21162;-48
2021/03/24 06:58:14;;;;;;;0.20;0.20;;;;;;;-0.12;89.50;100605.33;1768278;81;21750;-48
2021/03/24 07:01:40;;;;;;;0.05;0.05;;;;;;;-0.10;88.95;100607.80;1771654;79;21787;-48
2021/03/24 07:05:03;;;;;;;0.08;0.08;;;;;;;-0.10;88.97;100605.95;1738181;81;21150;-47
2021/03/24 07:08:42;;;;;;;0.28;0.28;;;;;;;-0.04;87.23;100621.77;1768255;80;21127;-47
2021/03/24 07:12:11;;;;;;;0.08;0.08;;;;;;;0.04;87.07;100612.67;1769986;79;21110;-48
2021/03/24 07:15:41;;;;;;;3.60;0.98;;;;;;;0.11;86.39;100617.53;1768603;81;21118;-47
2021/03/24 07:19:03;;;;;;;0.30;0.30;;;;;;;0.14;85.80;100620.63;1768581;79;21162;-47
2021/03/24 07:22:38;;;;;;;0.20;0.20;;;;;;;0.27;85.20;100618.45;1814683;77;21433;-47
2021/03/24 07:26:00;;;;;;;2.10;0.78;;;;;;;0.40;84.99;100616.29;1790303;79;21130;-47
2021/03/24 07:29:32;;;;;;;0.10;0.10;;;;;;;0.45;84.28;100627.24;1745564;81;21134;-47
2021/03/24 07:32:40;;;;;;;1.30;0.42;;;;;;;0.54;83.61;100626.49;1771254;79;21186;-45
2021/03/24 07:36:05;;;;;;;0.75;0.75;;;;;;;0.71;82.75;100618.81;1768527;79;21041;-44
2021/03/24 07:39:37;;;;;;;1.25;0.95;;;;;;;0.80;83.02;100626.45;1768335;81;21158;-45
2021/03/24 07:42:58;;;;;;;0.20;0.20;;;;;;;0.91;82.05;100635.73;1769724;79;21153;-45
2021/03/24 07:46:18;;;;;;;0.10;0.10;;;;;;;0.99;82.75;100636.86;1773196;79;21099;-44
2021/03/24 07:49:47;;;;;;;0.85;0.50;;;;;;;1.04;81.88;100651.86;1797617;79;21143;-44
2021/03/24 07:53:25;;;;;;;0.00;0.00;;;;;;;1.04;81.76;100647.00;1768234;81;21147;-44
2021/03/24 07:56:49;;;;;;;1.95;1.42;;;;;;;1.07;81.90;100650.61;1769267;79;21586;-44
2021/03/24 08:00:02;;;;;;;;;;;;;;;1.08;81.85;100657.63;1789348;79;21131;-45
2021/03/24 08:03:26;;;;;;;0.17;0.15;;;;;;;1.20;80.90;100659.15;1768949;79;20564;-44
2021/03/24 08:06:42;;;;;;;3.52;0.90;;;;;;;1.19;81.56;100659.67;1747548;81;21154;-46
2021/03/24 08:10:16;;;;;;;0.10;0.10;;;;;;;1.27;81.39;100670.72;1764397;80;21170;-45
2021/03/24 08:14:00;;;;;;;0.42;0.20;;;;;;;1.31;81.92;100668.42;1769885;79;21130;-47
2021/03/24 08:17:27;;;;;;;0.62;0.40;;;;;;;1.37;82.05;100677.01;1738502;81;21150;-47
2021/03/24 08:21:08;;;;;;;1.55;0.72;;;;;;;1.49;80.75;100681.51;1768846;79;21165;-45
2021/03/24 08:24:39;;;;;;;0.72;0.72;;;;;;;1.59;80.87;100670.80;1776574;79;21458;-44
2021/03/24 08:28:02;;;;;;;0.57;0.57;;;;;;;1.64;80.64;100692.00;1773214;79;21130;-44
2021/03/24 08:31:43;;;;;;;0.68;0.68;;;;;;;1.64;80.19;100688.49;1769827;79;21166;-48
2021/03/24 08:35:16;;;;;;;0.90;0.90;;;;;;;1.74;80.90;100693.42;1776637;79;21122;-45
2021/03/24 08:38:59;;;;;;;1.45;0.35;;;;;;;1.75;79.38;100691.84;1796635;79;21138;-45
2021/03/24 08:42:32;;;;;;;0.23;0.23;;;;;;;1.79;80.11;100698.46;1722109;82;21581;-48
2021/03/24 08:45:39;;;;;;;0.30;0.30;;;;;;;1.82;80.02;100698.55;1734792;79;21245;-48
2021/03/24 08:49:02;;;;;;;0.72;0.72;;;;;;;1.78;79.17;100700.02;1746152;79;21157;-48
2021/03/24 08:52:33;;;;;;;0.65;0.28;;;;;;;1.77;79.79;100703.23;1768162;81;21628;-47
2021/03/24 08:55:57;;;;;;;0.08;0.08;;;;;;;1.73;79.32;100702.00;1785495;79;21158;-45
2021/03/24 08:59:09;;;;;;;0.55;0.55;;;;;;;1.74;79.27;100702.85;1814001;77;21119;-44
2021/03/24 09:02:30;;;;;;;0.45;0.45;;;;;;;1.77;78.92;100691.63;1823100;77;21055;-47
2021/03/24 09:06:22;;;;;;;0.53;0.50;;;;;;;1.83;78.67;100688.91;1823361;77;21146;-47
2021/03/24 09:09:50;;;;;;;0.33;0.33;;;;;;;1.96;78.17;100693.92;1764173;79;21143;-44
2021/03/24 09:13:33;;;;;;;0.72;0.72;;;;;;;2.02;79.36;100693.86;1762404;81;21441;-49
2021/03/24 09:17:09;;;;;;;0.28;0.28;;;;;;;2.14;78.75;100689.43;1766363;79;21135;-45
2021/03/24 09:20:38;;;;;;;2.83;0.90;;;;;;;2.36;78.32;100687.73;1791311;77;21166;-44
2021/03/24 09:24:20;;;;;;;0.20;0.20;;;;;;;2.49;77.37;100695.70;1768400;81;21161;-47
2021/03/24 09:27:47;;;;;;;0.90;0.72;;;;;;;2.72;77.12;100691.06;1794541;79;21578;-50
2021/03/24 09:31:23;;;;;;;0.53;0.53;;;;;;;2.84;77.20;100699.23;1776801;79;21624;-47
2021/03/24 09:34:45;;;;;;;0.28;0.28;;;;;;;2.89;75.81;100703.44;1768784;79;21138;-47
2021/03/24 09:37:51;;;;;;;0.30;0.30;;;;;;;2.95;75.78;100697.17;1753901;80;21150;-47
2021/03/24 09:41:00;;;;;;;0.57;0.57;;;;;;;3.01;75.36;100704.36;1768491;79;20991;-45
2021/03/24 09:44:06;;;;;;;0.53;0.53;;;;;;;2.93;74.10;100708.70;1770587;79;21614;-45
2021/03/24 09:47:08;;;;;;;0.30;0.30;;;;;;;2.95;73.98;100699.87;1770001;79;21172;-45
2021/03/24 09:50:20;;;;;;;0.37;0.37;;;;;;;2.89;72.96;100700.74;1781113;79;21167;-45
2021/03/24 09:53:32;;;;;;;0.20;0.20;;;;;;;2.84;72.85;100703.28;1750617;81;21128;-45
2021/03/24 09:56:32;;;;;;;0.10;0.10;;;;;;;2.85;72.82;100707.66;1765106;79;21146;-44
2021/03/24 09:59:49;;;;;;;0.75;0.75;;;;;;;2.97;71.97;100699.66;1760038;81;21701;-46
2021/03/24 10:02:57;;;;;;;0.33;0.33;;;;;;;3.12;71.51;100705.52;1776770;80;21108;-47
2021/03/24 10:06:06;;;;;;;0.82;0.82;;;;;;;3.24;71.54;100694.80;1766293;79;21181;-44
2021/03/24 10:09:29;;;;;;;0.45;0.33;;;;;;;3.32;70.15;100693.14;1764461;80;21201;-44
2021/03/24 10:12:40;;;;;;;1.92;0.28;;;;;;;3.48;71.66;100685.47;1745605;80;21303;-43
2021/03/24 10:15:53;;;;;;;0.40;0.40;;;;;;;3.51;69.85;100691.27;1762775;81;21130;-44
2021/03/24 10:19:23;;;;;;;0.15;0.15;;;;;;;3.52;70.63;100694.25;1769503;79;21614;-44
2021/03/24 10:22:32;;;;;;;0.30;0.30;;;;;;;3.56;72.20;100690.56;1747889;80;21142;-44
2021/03/24 10:25:47;;;;;;;0.70;0.70;;;;;;;3.70;70.27;100687.99;1738736;81;21134;-46
2021/03/24 10:29:06;;;;;;;0.62;0.62;;;;;;;3.88;70.10;100673.10;1750774;81;21197;-46
2021/03/24 10:32:10;;;;;;;0.88;0.68;;;;;;;4.15;69.36;100687.56;1746322;81;21130;-47
2021/03/24 10:35:36;;;;;;;0.62;0.62;;;;;;;4.35;66.47;100676.44;1746311;82;21439;-46
2021/03/24 10:39:03;;;;;;;0.08;0.08;;;;;;;4.44;65.08;100660.70;1737832;81;21126;-47
2021/03/24 10:42:23;;;;;;;0.28;0.28;;;;;;;4.60;66.07;100669.48;1784782;79;21145;-46
2021/03/24 10:45:44;;;;;;;0.70;0.70;;;;;;;4.66;66.51;100665.02;1730410;82;21137;-47
2021/03/24 10:49:08;;;;;;;0.23;0.23;;;;;;;4.78;65.78;100665.84;1736228;80;21128;-47
2021/03/24 10:52:20;;;;;;;;;;;;;;;4.79;64.15;100654.47;1716594;82;21126;-46
2021/03/24 10:55:27;;;;;;;0.20;0.20;;;;;;;4.69;63.71;100659.94;1762507;81;20267;-47
2021/03/24 10:58:57;;;;;;;1.00;0.37;;;;;;;4.55;64.83;100668.52;1735101;80;21137;-46
2021/03/24 11:02:07;;;;;;;1.10;0.35;;;;;;;4.40;65.00;100660.86;1741422;80;21604;-46
2021/03/24 11:05:19;;;;;;;1.80;1.17;;;;;;;4.43;65.70;100661.77;1768052;78;21201;-47
2021/03/24 11:08:37;;;;;;;0.68;0.68;;;;;;;4.28;64.02;100660.86;1762560;80;21122;-47
2021/03/24 11:11:55;;;;;;;0.03;0.03;;;;;;;4.12;65.09;100656.93;1749560;79;21155;-47
2021/03/24 11:15:26;;;;;;;0.10;0.10;;;;;;;4.01;65.36;100660.45;1777087;79;21771;-46
2021/03/24 11:18:32;;;;;;;0.10;0.10;;;;;;;3.99;66.99;100663.91;1741473;82;21161;-47
2021/03/24 11:22:01;;;;;;;1.65;0.70;;;;;;;4.06;66.71;100662.75;1788742;78;21455;-46
2021/03/24 11:25:31;;;;;;;0.03;0.03;;;;;;;4.11;66.60;100667.47;1797540;79;21595;-46
2021/03/24 11:28:43;;;;;;;0.65;0.57;;;;;;;4.12;67.05;100662.34;1800302;79;21130;-47
2021/03/24 11:32:00;;;;;;;0.42;0.35;;;;;;;4.14;65.60;100657.53;1757556;80;21422;-47
2021/03/24 11:35:26;;;;;;;0.10;0.10;;;;;;;4.31;66.46;100649.03;1796140;79;20990;-47
2021/03/24 11:39:00;;;;;;;0.65;0.60;;;;;;;4.47;66.87;100659.69;1751863;80;21144;-47
2021/03/24 11:42:19;;;;;;;0.90;0.40;;;;;;;4.57;65.07;100654.23;1718731;82;21125;-46
2021/03/24 11:45:23;;;;;;;2.30;1.00;;;;;;;4.50;64.61;100655.69;1736281;79;21450;-47
2021/03/24 11:48:48;;;;;;;0.62;0.55;;;;;;;4.50;66.31;100655.69;1795055;79;21139;-47
2021/03/24 11:52:19;;;;;;;2.90;0.60;;;;;;;4.43;66.00;100659.06;1826039;77;21139;-47
2021/03/24 11:55:47;;;;;;;0.30;0.30;;;;;;;4.33;66.87;100654.73;1738138;82;21166;-47
2021/03/24 11:58:53;;;;;;;0.68;0.25;;;;;;;4.25;66.82;100663.51;1787981;79;21177;-47
2021/03/24 12:02:26;;;;;;;0.45;0.45;;;;;;;4.28;69.12;100667.09;1787298;79;21559;-48
2021/03/24 12:05:32;;;;;;;0.90;0.90;;;;;;;4.43;66.18;100672.59;1778905;79;21217;-47
2021/03/24 12:09:09;;;;;;;1.17;0.25;;;;;;;4.56;65.65;100680.48;1790727;79;21166;-46
2021/03/24 12:12:20;;;;;;;0.95;0.40;;;;;;;4.84;65.31;100659.47;1768086;81;21762;-47
2021/03/24 12:15:31;;;;;;;0.50;0.50;;;;;;;4.81;64.49;100664.55;1768458;79;21172;-47
2021/03/24 12:18:57;;;;;;;0.20;0.20;;;;;;;4.61;63.74;100671.66;1768155;81;21193;-47
2021/03/24 12:22:03;;;;;;;0.20;0.20;;;;;;;4.47;64.08;100673.75;1785523;79;21114;-47
2021/03/24 12:25:25;;;;;;;0.30;0.30;;;;;;;4.40;64.32;100664.92;1768054;81;22089;-47
2021/03/24 12:28:36;;;;;;;0.30;0.30;;;;;;;4.44;63.96;100674.23;1753782;81;21620;-47
2021/03/24 12:31:39;;;;;;;1.65;0.75;;;;;;;4.54;65.01;100678.53;1726436;81;21129;-47
2021/03/24 12:34:44;;;;;;;0.40;0.30;;;;;;;4.57;64.63;100673.18;1768546;79;21142;-46
2021/03/24 12:37:55;;;;;;;1.07;0.35;;;;;;;4.64;64.27;100672.00;1786227;79;21146;-46
2021/03/24 12:41:07;;;;;;;0.20;0.20;;;;;;;4.70;63.44;100668.38;1768337;79;21185;-47
2021/03/24 12:44:32;;;;;;;0.62;0.42;;;;;;;4.77;62.67;100673.65;1768379;79;21174;-47
2021/03/24 12:47:38;;;;;;;0.00;0.00;;;;;;;4.80;62.56;100669.64;1795809;79;21118;-47
2021/03/24 12:50:43;;;;;;;0.10;0.10;;;;;;;4.71;62.05;100664.59;1794760;79;21158;-47
2021/03/24 12:54:03;;;;;;;0.53;0.53;;;;;;;4.59;62.84;100665.12;1799942;79;21126;-46
2021/03/24 12:57:38;;;;;;;0.57;0.57;;;;;;;4.49;62.11;100663.53;1694690;81;21182;-47
2021/03/24 13:01:08;;;;;;;0.65;0.45;;;;;;;4.47;61.12;100661.58;1768092;81;21176;-48
2021/03/24 13:04:54;;;;;;;0.10;0.10;;;;;;;4.46;61.64;100666.70;1767849;81;21166;-47
2021/03/24 13:08:41;;;;;;;0.00;0.00;;;;;;;4.40;61.34;100677.09;1799832;79;21742;-46
2021/03/24 13:12:17;;;;;;;0.62;0.62;;;;;;;4.38;60.95;100668.41;1795863;79;21138;-46
2021/03/24 13:15:47;;;;;;;0.20;0.20;;;;;;;4.43;59.80;100663.94;1828147;77;21169;-47
2021/03/24 13:19:11;;;;;;;0.68;0.60;;;;;;;4.50;60.27;100670.07;1828387;78;21126;-47
2021/03/24 13:22:33;;;;;;;0.00;0.00;;;;;;;4.55;59.25;100666.66;1815437;77;21104;-46
2021/03/24 13:26:01;;;;;;;0.47;0.47;;;;;;;4.53;60.76;100665.53;1744741;78;21198;-47
2021/03/24 13:29:46;;;;;;;0.25;0.25;;;;;;;4.49;60.97;100673.81;1759031;81;21119;-46
2021/03/24 13:33:04;;;;;;;0.10;0.10;;;;;;;4.48;60.89;100678.13;1788491;79;21204;-47
2021/03/24 13:36:25;;;;;;;0.10;0.10;;;;;;;4.37;61.77;100680.27;1771300;79;21601;-47
2021/03/24 13:39:40;;;;;;;0.28;0.10;;;;;;;4.30;61.73;100671.75;1768360;81;21224;-46
2021/03/24 13:42:46;;;;;;;0.50;0.50;;;;;;;4.22;61.69;100680.17;1774881;79;21115;-46
2021/03/24 13:46:11;;;;;;;0.65;0.65;;;;;;;4.14;62.62;100671.59;1790904;79;50308;-47
2021/03/24 13:49:45;;;;;;;0.13;0.13;;;;;;;4.15;63.09;100680.80;1768666;79;21174;-47
2021/03/24 13:52:57;;;;;;;0.57;0.57;;;;;;;4.18;62.60;100676.30;1768377;79;21403;-47
2021/03/24 13:56:21;;;;;;;4.28;0.80;;;;;;;4.19;61.76;100672.53;1777363;77;21166;-46
2021/03/24 13:59:35;;;;;;;0.00;0.00;;;;;;;4.24;61.32;100677.25;1768413;79;21158;-47
2021/03/24 14:02:49;;;;;;;0.03;0.03;;;;;;;4.25;60.06;100686.50;1769090;79;21129;-47
2021/03/24 14:06:17;;;;;;;0.08;0.08;;;;;;;4.21;59.83;100682.59;1776650;79;21147;-47
2021/03/24 14:09:32;;;;;;;1.47;0.33;;;;;;;4.22;60.27;100680.17;1778011;79;21538;-47
2021/03/24 14:13:03;;;;;;;0.50;0.50;;;;;;;4.18;61.23;100679.02;1775889;79;21154;-48
2021/03/24 14:16:27;;;;;;;0.30;0.30;;;;;;;4.18;60.83;100682.22;1783421;79;21151;-47
2021/03/24 14:19:35;;;;;;;0.23;0.23;;;;;;;4.21;62.01;100688.01;1780596;79;21594;-47
2021/03/24 14:22:44;;;;;;;0.13;0.13;;;;;;;4.20;60.25;100690.40;1816686;77;21150;-47
2021/03/24 14:25:47;;;;;;;0.10;0.10;;;;;;;4.20;60.96;100701.22;1773178;79;21172;-47
2021/03/24 14:29:25;;;;;;;0.00;0.00;;;;;;;4.20;59.20;100699.87;1734078;79;21016;-47
2021/03/24 14:32:32;;;;;;;0.55;0.55;;;;;;;4.23;60.38;100705.37;1778426;79;21157;-47
2021/03/24 14:35:59;;;;;;;4.67;0.35;;;;;;;4.17;60.75;100698.16;1750496;81;21111;-47
2021/03/24 14:39:13;;;;;;;0.10;0.10;;;;;;;4.14;60.16;100700.80;1751687;81;21229;-46
2021/03/24 14:42:30;;;;;;;0.25;0.25;;;;;;;4.13;60.64;100703.23;1778729;79;21803;-47
2021/03/24 14:45:54;;;;;;;1.57;0.45;;;;;;;4.11;61.02;100698.57;1738192;81;21114;-46
2021/03/24 14:49:12;;;;;;;0.37;0.37;;;;;;;4.13;60.64;100709.14;1768900;79;21707;-47
2021/03/24 14:52:18;;;;;;;0.35;0.30;;;;;;;4.06;61.25;100706.55;1745601;81;21185;-46
2021/03/24 14:55:36;;;;;;;0.72;0.10;;;;;;;4.03;62.01;100717.80;1757162;80;21130;-47
2021/03/24 14:58:51;;;;;;;0.00;0.00;;;;;;;3.99;62.22;100718.80;1749382;81;21376;-46
2021/03/24 15:01:53;;;;;;;5.33;0.40;;;;;;;3.94;63.25;100725.95;1757437;80;21150;-47
2021/03/24 15:04:57;;;;;;;0.20;0.20;;;;;;;3.92;62.24;100724.00;1770160;79;21577;-47
2021/03/24 15:08:21;;;;;;;0.10;0.10;;;;;;;3.90;62.14;100724.75;1772488;79;21170;-46
2021/03/24 15:11:33;;;;;;;0.15;0.15;;;;;;;3.85;60.72;100723.55;1733909;80;21162;-47
2021/03/24 15:14:56;;;;;;;0.00;0.00;;;;;;;3.86;59.26;100724.40;1751526;79;21135;-47